Aviation Digital Data Service (ADDS)

Output produced by METARs form (0531 UTC 21 April 2014)
found at http://aviationweather.gov/adds/metars/
 
KGSP 210520Z 2106/2206 01005KT P6SM FEW250 
     FM211800 21003KT P6SM FEW250